Time;durP1;ratioP1;P1;durP2;ratioP2;P2;SDS_P1;SDS_P2;PMS_P1;PMS_P2;Temp;Humidity;BMP_temperature;BMP_pressure;BME280_temperature;BME280_humidity;BME280_pressure;Samples;Min_cycle;Max_cycle;Signal;HPM_P1;HPM_P2
2022/07/04 00:01:31;;;;;;;;;;;17.80;86.90;;;;;;5000682;28;19936;-86
2022/07/04 00:04:06;;;;;;;;;;;17.70;87.30;;;;;;5026147;28;19929;-88
2022/07/04 00:06:44;;;;;;;;;;;17.60;88.80;;;;;;4997408;28;19925;-86
2022/07/04 00:09:11;;;;;;;;;;;17.60;87.90;;;;;;4996451;28;19936;-87
2022/07/04 00:11:40;;;;;;;;;;;17.50;88.70;;;;;;5030291;28;19931;-87
2022/07/04 00:14:14;;;;;;;;;;;17.40;89.60;;;;;;5014691;28;19925;-87
2022/07/04 00:16:49;;;;;;;;;;;17.30;90.30;;;;;;5011179;28;19925;-87
2022/07/04 00:22:56;;;;;;;;;;;17.10;90.40;;;;;;4998179;28;19929;-87
2022/07/04 00:25:24;;;;;;;;;;;16.90;90.80;;;;;;5010086;28;19926;-89
2022/07/04 00:27:52;;;;;;;;;;;16.80;91.10;;;;;;5026581;28;19929;-87
2022/07/04 00:30:22;;;;;;;;;;;16.70;91.10;;;;;;5011699;28;19936;-88
2022/07/04 00:32:54;;;;;;;;;;;16.70;91.30;;;;;;4999313;28;19940;-87
2022/07/04 00:35:27;;;;;;;;;;;16.60;91.40;;;;;;5010597;28;19921;-87
2022/07/04 00:37:56;;;;;;;;;;;16.60;91.40;;;;;;5010324;28;19930;-86
2022/07/04 00:40:27;;;;;;;;;;;16.50;91.70;;;;;;5010972;28;19926;-87
2022/07/04 00:43:00;;;;;;;;;;;16.50;91.50;;;;;;4994128;28;19928;-86
2022/07/04 00:45:29;;;;;;;;;;;16.40;91.70;;;;;;5011552;28;19936;-85
2022/07/04 00:48:06;;;;;;;;;;;16.30;91.60;;;;;;4991542;28;19930;-88
2022/07/04 00:50:39;;;;;;;;;;;16.40;91.80;;;;;;5011380;28;20133;-88
2022/07/04 00:53:15;;;;;;;;;;;16.20;91.90;;;;;;5008723;28;19937;-87
2022/07/04 00:55:46;;;;;;;;;;;16.20;91.70;;;;;;4979340;28;19932;-85
2022/07/04 00:58:23;;;;;;;;;;;16.10;91.70;;;;;;5010671;28;19922;-87
2022/07/04 01:01:08;;;;;;;;;;;16.10;91.70;;;;;;5007782;28;19936;-88
2022/07/04 01:03:42;;;;;;;;;;;16.00;91.70;;;;;;5008144;28;19933;-89
2022/07/04 01:06:16;;;;;;;;;;;16.00;91.90;;;;;;4988156;28;19933;-87
2022/07/04 01:08:49;;;;;;;;;;;16.60;91.80;;;;;;5003550;28;19936;-85
2022/07/04 01:11:17;;;;;;;;;;;15.90;91.70;;;;;;4975105;28;19929;-84
2022/07/04 01:13:46;;;;;;;;;;;16.00;91.70;;;;;;4987554;28;19926;-87
2022/07/04 01:16:20;;;;;;;;;;;15.90;91.60;;;;;;5009160;28;19936;-88
2022/07/04 01:18:53;;;;;;;;;;;15.80;91.80;;;;;;5001573;28;19945;-87
2022/07/04 01:21:28;;;;;;;;;;;15.80;91.80;;;;;;4989188;28;19934;-88
2022/07/04 01:24:15;;;;;;;;;;;15.70;91.90;;;;;;4995172;28;19930;-88
2022/07/04 01:26:51;;;;;;;;;;;15.70;92.00;;;;;;5010265;28;19922;-86
2022/07/04 01:29:21;;;;;;;;;;;15.60;92.20;;;;;;5008628;28;19922;-86
2022/07/04 01:31:53;;;;;;;;;;;15.60;92.20;;;;;;5009469;28;19926;-87
2022/07/04 01:34:25;;;;;;;;;;;15.50;92.30;;;;;;5027050;28;19929;-86
2022/07/04 01:37:16;;;;;;;;;;;15.50;92.40;;;;;;5018226;28;19926;-87
2022/07/04 01:39:47;;;;;;;;;;;15.60;92.50;;;;;;5028663;28;19929;-88
2022/07/04 01:42:17;;;;;;;;;;;15.60;92.40;;;;;;5012348;28;19925;-89
2022/07/04 01:44:45;;;;;;;;;;;15.50;92.20;;;;;;5000988;28;19926;-87
2022/07/04 01:47:27;;;;;;;;;;;15.50;92.30;;;;;;5006983;28;19929;-89
2022/07/04 01:49:56;;;;;;;;;;;15.40;92.70;;;;;;5014445;28;19970;-88
2022/07/04 01:52:26;;;;;;;;;;;15.60;92.10;;;;;;5027033;28;19926;-88
2022/07/04 01:55:02;;;;;;;;;;;16.00;92.30;;;;;;5021817;28;19929;-85
2022/07/04 01:57:35;;;;;;;;;;;15.50;92.30;;;;;;5013192;28;19930;-88
2022/07/04 02:02:56;;;;;;;;;;;15.40;92.00;;;;;;5023662;28;19926;-87
2022/07/04 02:05:24;;;;;;;;;;;15.50;92.20;;;;;;5010293;28;19934;-87
2022/07/04 02:07:54;;;;;;;;;;;15.40;92.00;;;;;;4998059;28;19929;-88
2022/07/04 02:10:24;;;;;;;;;;;15.40;92.20;;;;;;5029833;28;19932;-87
2022/07/04 02:13:03;;;;;;;;;;;15.30;92.20;;;;;;4995826;28;19940;-88
2022/07/04 02:15:43;;;;;;;;;;;15.30;92.20;;;;;;5023796;28;19932;-87
2022/07/04 02:18:13;;;;;;;;;;;15.30;92.70;;;;;;5026731;28;19925;-86
2022/07/04 02:20:41;;;;;;;;;;;15.20;92.20;;;;;;5005528;28;19926;-86
2022/07/04 02:23:09;;;;;;;;;;;15.20;92.30;;;;;;5022983;28;19926;-84
2022/07/04 02:25:43;;;;;;;;;;;15.10;92.40;;;;;;5001204;28;19928;-87
2022/07/04 02:28:12;;;;;;;;;;;15.10;92.40;;;;;;5018279;28;19925;-88
2022/07/04 02:30:43;;;;;;;;;;;15.00;92.50;;;;;;5023596;28;19930;-88
2022/07/04 02:33:13;;;;;;;;;;;15.00;92.60;;;;;;5029094;28;19939;-88
2022/07/04 02:36:00;;;;;;;;;;;15.00;92.60;;;;;;4997583;28;19925;-84
2022/07/04 02:38:27;;;;;;;;;;;15.00;93.20;;;;;;5009179;28;19936;-88
2022/07/04 02:40:56;;;;;;;;;;;14.90;92.80;;;;;;5022752;28;19926;-89
2022/07/04 02:43:24;;;;;;;;;;;14.80;92.90;;;;;;5022557;28;19930;-86
2022/07/04 02:45:51;;;;;;;;;;;14.80;93.10;;;;;;5011607;28;19926;-88
2022/07/04 02:48:19;;;;;;;;;;;14.80;93.00;;;;;;5024004;28;19929;-87
2022/07/04 02:50:47;;;;;;;;;;;13.30;93.10;;;;;;5010291;28;19925;-88
2022/07/04 02:53:16;;;;;;;;;;;14.70;93.30;;;;;;5034070;28;19932;-88
2022/07/04 02:55:44;;;;;;;;;;;14.60;93.20;;;;;;5025716;28;19925;-87
2022/07/04 02:58:12;;;;;;;;;;;14.60;93.40;;;;;;5024055;28;19926;-88
2022/07/04 03:00:39;;;;;;;;;;;14.50;93.50;;;;;;5021249;28;19941;-88
2022/07/04 03:03:07;;;;;;;;;;;14.50;94.10;;;;;;5018357;28;19926;-86
2022/07/04 03:05:35;;;;;;;;;;;14.50;93.80;;;;;;4992097;28;19941;-85
2022/07/04 03:08:03;;;;;;;;;;;15.70;94.00;;;;;;4673011;28;10000514;-89
2022/07/04 03:10:34;;;;;;;;;;;14.40;93.90;;;;;;5044638;28;19925;-88
2022/07/04 03:13:05;;;;;;;;;;;14.40;94.30;;;;;;5010136;28;19925;-84
2022/07/04 03:15:36;;;;;;;;;;;14.30;93.90;;;;;;5021599;28;19935;-87
2022/07/04 03:18:06;;;;;;;;;;;14.80;94.10;;;;;;4995417;28;19932;-87
2022/07/04 03:20:34;;;;;;;;;;;14.30;94.00;;;;;;5012746;28;19925;-87
2022/07/04 03:23:02;;;;;;;;;;;14.30;94.10;;;;;;5030744;28;19939;-88
2022/07/04 03:25:30;;;;;;;;;;;14.20;94.10;;;;;;5035055;28;19926;-86
2022/07/04 03:28:01;;;;;;;;;;;14.20;94.20;;;;;;5013458;28;19926;-88
2022/07/04 03:31:12;;;;;;;;;;;14.10;94.40;;;;;;5007283;28;19940;-89
2022/07/04 03:33:44;;;;;;;;;;;14.10;94.40;;;;;;5032632;28;19940;-88
2022/07/04 03:36:13;;;;;;;;;;;14.00;94.60;;;;;;4999381;28;19943;-87
2022/07/04 03:38:42;;;;;;;;;;;13.90;94.60;;;;;;5017159;28;19925;-87
2022/07/04 03:41:11;;;;;;;;;;;13.90;95.00;;;;;;5016702;28;19926;-86
2022/07/04 03:43:45;;;;;;;;;;;13.80;94.80;;;;;;5030758;28;19936;-89
2022/07/04 03:46:26;;;;;;;;;;;13.80;95.40;;;;;;5034381;28;19932;-86
2022/07/04 03:48:55;;;;;;;;;;;13.80;95.20;;;;;;5018572;28;19935;-86
2022/07/04 03:51:51;;;;;;;;;;;13.70;95.10;;;;;;5014498;28;19914;-84
2022/07/04 03:54:28;;;;;;;;;;;13.70;95.20;;;;;;5033970;28;19943;-87
2022/07/04 03:57:24;;;;;;;;;;;13.70;95.40;;;;;;5015944;28;19930;-87
2022/07/04 03:59:53;;;;;;;;;;;13.60;95.30;;;;;;5034923;28;19936;-88
2022/07/04 04:02:23;;;;;;;;;;;13.60;95.50;;;;;;5015776;28;19925;-88
2022/07/04 04:07:57;;;;;;;;;;;13.60;95.60;;;;;;5036612;28;19921;-89
2022/07/04 04:10:34;;;;;;;;;;;13.70;95.90;;;;;;5033230;28;19925;-88
2022/07/04 04:13:09;;;;;;;;;;;13.70;95.40;;;;;;5044226;28;19915;-87
2022/07/04 04:15:52;;;;;;;;;;;13.70;95.60;;;;;;5020282;28;19936;-86
2022/07/04 04:18:21;;;;;;;;;;;13.80;95.30;;;;;;5016153;28;19925;-88
2022/07/04 04:20:52;;;;;;;;;;;13.80;95.30;;;;;;5013138;28;19922;-89
2022/07/04 04:23:30;;;;;;;;;;;14.00;95.30;;;;;;5022213;28;19916;-86
2022/07/04 04:26:01;;;;;;;;;;;13.60;95.20;;;;;;5015840;28;19925;-88
2022/07/04 04:28:31;;;;;;;;;;;13.90;95.10;;;;;;5033299;28;19922;-86
2022/07/04 04:31:01;;;;;;;;;;;13.90;95.10;;;;;;5014614;28;19926;-88
2022/07/04 04:33:29;;;;;;;;;;;13.90;95.00;;;;;;5032541;28;19940;-87
2022/07/04 04:36:00;;;;;;;;;;;13.70;95.10;;;;;;5012021;28;19929;-88
2022/07/04 04:38:29;;;;;;;;;;;13.80;95.20;;;;;;5027478;28;19940;-88
2022/07/04 04:40:58;;;;;;;;;;;13.80;95.40;;;;;;5006218;28;19929;-89
2022/07/04 04:43:26;;;;;;;;;;;13.80;95.30;;;;;;4996093;28;19913;-88
2022/07/04 04:45:54;;;;;;;;;;;13.80;95.50;;;;;;5012260;28;19921;-89
2022/07/04 04:48:25;;;;;;;;;;;13.80;95.40;;;;;;5031032;28;19930;-88
2022/07/04 04:51:16;;;;;;;;;;;13.80;95.50;;;;;;5030168;28;19926;-88
2022/07/04 04:53:57;;;;;;;;;;;13.70;95.30;;;;;;5026381;28;19921;-88
2022/07/04 04:56:31;;;;;;;;;;;13.90;95.80;;;;;;4999546;28;19989;-87
2022/07/04 04:59:15;;;;;;;;;;;12.70;95.90;;;;;;5002236;28;19928;-88
2022/07/04 05:01:44;;;;;;;;;;;13.70;96.00;;;;;;5021177;28;19936;-88
2022/07/04 05:04:20;;;;;;;;;;;14.00;95.50;;;;;;4988806;28;19928;-88
2022/07/04 05:06:48;;;;;;;;;;;14.00;95.50;;;;;;5009840;28;19925;-87
2022/07/04 05:09:22;;;;;;;;;;;13.90;95.80;;;;;;5017244;28;19925;-89
2022/07/04 05:11:50;;;;;;;;;;;14.00;95.30;;;;;;5031773;28;19932;-85
2022/07/04 05:14:26;;;;;;;;;;;14.00;95.40;;;;;;5021313;28;19930;-88
2022/07/04 05:17:07;;;;;;;;;;;14.10;95.40;;;;;;5028173;28;19925;-88
2022/07/04 05:19:41;;;;;;;;;;;15.50;95.90;;;;;;4981590;28;19926;-86
2022/07/04 05:22:10;;;;;;;;;;;14.40;95.40;;;;;;5024264;28;19917;-86
2022/07/04 05:25:07;;;;;;;;;;;14.10;95.60;;;;;;5032073;28;19926;-85
2022/07/04 05:27:48;;;;;;;;;;;14.10;95.60;;;;;;5030613;28;19927;-88
2022/07/04 05:30:34;;;;;;;;;;;14.40;95.60;;;;;;5015624;28;19925;-87
2022/07/04 05:33:09;;;;;;;;;;;14.10;95.50;;;;;;5013569;28;19930;-87
2022/07/04 05:35:39;;;;;;;;;;;13.10;95.50;;;;;;5005864;28;20194;-88
2022/07/04 05:38:13;;;;;;;;;;;14.20;95.60;;;;;;5035440;28;19925;-88
2022/07/04 05:40:48;;;;;;;;;;;14.20;95.80;;;;;;5036641;28;19909;-88
2022/07/04 05:43:41;;;;;;;;;;;14.30;95.90;;;;;;5037679;28;19935;-88
2022/07/04 05:46:12;;;;;;;;;;;14.30;95.40;;;;;;5033128;28;19913;-89
2022/07/04 05:48:50;;;;;;;;;;;14.40;95.40;;;;;;5032674;28;19926;-86
2022/07/04 05:51:26;;;;;;;;;;;14.40;95.40;;;;;;5018273;28;19947;-86
2022/07/04 05:54:19;;;;;;;;;;;14.40;95.50;;;;;;5015167;28;19932;-87
2022/07/04 05:56:50;;;;;;;;;;;14.60;95.40;;;;;;5026784;28;20100;-85
2022/07/04 05:59:18;;;;;;;;;;;14.60;95.30;;;;;;5021079;28;19931;-86
2022/07/04 06:02:08;;;;;;;;;;;14.60;95.30;;;;;;5034706;28;19932;-83
2022/07/04 06:04:57;;;;;;;;;;;14.70;95.30;;;;;;5031763;28;19924;-87
2022/07/04 06:07:28;;;;;;;;;;;14.70;95.30;;;;;;5034937;28;19925;-88
2022/07/04 06:10:05;;;;;;;;;;;13.10;94.60;;;;;;5036258;28;19924;-87
2022/07/04 06:12:38;;;;;;;;;;;14.80;95.30;;;;;;5030875;28;20124;-85
2022/07/04 06:15:12;;;;;;;;;;;14.80;94.90;;;;;;5026181;28;19926;-87
2022/07/04 06:18:12;;;;;;;;;;;14.80;95.30;;;;;;5033956;28;19939;-87
2022/07/04 06:20:46;;;;;;;;;;;14.90;94.90;;;;;;5016490;28;19929;-87
2022/07/04 06:23:17;;;;;;;;;;;13.80;95.40;;;;;;5030500;28;19947;-86
2022/07/04 06:26:17;;;;;;;;;;;14.90;94.90;;;;;;5019139;28;19929;-86
2022/07/04 06:28:51;;;;;;;;;;;14.90;94.80;;;;;;5019698;28;19935;-85
2022/07/04 06:31:22;;;;;;;;;;;14.80;94.80;;;;;;5018416;28;19925;-85
2022/07/04 06:36:49;;;;;;;;;;;14.90;95.30;;;;;;5029375;28;19925;-85
2022/07/04 06:39:20;;;;;;;;;;;15.10;94.90;;;;;;5047405;28;19929;-83
2022/07/04 06:41:49;;;;;;;;;;;14.80;95.00;;;;;;5012879;28;19925;-86
2022/07/04 06:44:20;;;;;;;;;;;13.60;96.10;;;;;;5020325;28;19926;-86
2022/07/04 06:56:14;;;;;;;;;;;14.80;94.60;;;;;;5002863;28;19921;-90
2022/07/04 07:04:01;;;;;;;;;;;;;;;;;;;;;
2022/07/04 07:15:59;;;;;;;;;;;;;;;;;;;;;
2022/07/04 07:20:13;;;;;;;;;;;14.80;95.20;;;;;;4905653;29;19933;-88
2022/07/04 07:23:26;;;;;;;;;;;15.50;95.00;;;;;;4877202;29;19912;-89
2022/07/04 07:26:30;;;;;;;;;;;15.00;93.50;;;;;;4900209;29;20002;-85
2022/07/04 07:28:59;;;;;;;;;;;15.90;93.50;;;;;;4917367;29;20424;-85
2022/07/04 07:31:29;;;;;;;;;;;16.20;93.40;;;;;;4923954;29;19926;-84
2022/07/04 07:34:00;;;;;;;;;;;16.00;93.90;;;;;;4940535;29;20579;-83
2022/07/04 07:36:28;;;;;;;;;;;16.10;92.80;;;;;;4929010;29;19934;-85
2022/07/04 07:39:01;;;;;;;;;;;16.50;93.30;;;;;;5007436;28;19933;-85
2022/07/04 07:41:29;;;;;;;;;;;16.30;92.30;;;;;;5010774;28;19913;-83
2022/07/04 07:43:57;;;;;;;;;;;16.50;92.40;;;;;;5013042;28;19926;-84
2022/07/04 07:46:25;;;;;;;;;;;16.50;92.40;;;;;;5021056;28;19926;-85
2022/07/04 07:48:57;;;;;;;;;;;16.70;92.10;;;;;;5001527;28;19925;-85
2022/07/04 07:51:27;;;;;;;;;;;16.70;92.20;;;;;;5013571;28;19933;-84
2022/07/04 07:53:57;;;;;;;;;;;16.80;91.80;;;;;;5019845;28;19928;-84
2022/07/04 07:56:44;;;;;;;;;;;17.10;91.30;;;;;;5023944;28;19926;-83
2022/07/04 07:59:13;;;;;;;;;;;17.00;91.10;;;;;;5023357;28;19929;-84
2022/07/04 08:01:41;;;;;;;;;;;17.10;91.20;;;;;;5023284;28;19932;-86
2022/07/04 08:06:56;;;;;;;;;;;17.20;90.30;;;;;;5024733;28;19963;-84
2022/07/04 08:09:48;;;;;;;;;;;17.30;90.70;;;;;;5029371;28;19949;-85
2022/07/04 08:12:42;;;;;;;;;;;18.60;90.40;;;;;;5002820;28;19930;-85
2022/07/04 08:15:20;;;;;;;;;;;17.40;89.90;;;;;;4651845;28;10000432;-85
2022/07/04 08:17:53;;;;;;;;;;;17.50;89.70;;;;;;5024620;28;19926;-85
2022/07/04 08:20:26;;;;;;;;;;;17.60;89.10;;;;;;5024805;28;19937;-85
2022/07/04 08:22:59;;;;;;;;;;;17.70;89.20;;;;;;5018902;28;19933;-85
2022/07/04 08:25:27;;;;;;;;;;;17.90;89.50;;;;;;5020954;28;20130;-84
2022/07/04 08:27:55;;;;;;;;;;;17.90;88.40;;;;;;5020821;28;19933;-83
2022/07/04 08:30:26;;;;;;;;;;;17.90;88.00;;;;;;5024621;28;19926;-85
2022/07/04 08:32:54;;;;;;;;;;;18.00;86.80;;;;;;5024047;28;19933;-85
2022/07/04 08:35:22;;;;;;;;;;;17.80;87.90;;;;;;5040747;28;19936;-84
2022/07/04 08:37:55;;;;;;;;;;;18.20;87.40;;;;;;5006484;28;20387;-86
2022/07/04 08:40:26;;;;;;;;;;;18.30;86.90;;;;;;5002954;28;19929;-85
2022/07/04 08:42:54;;;;;;;;;;;18.50;86.80;;;;;;5022915;28;19929;-84
2022/07/04 08:45:29;;;;;;;;;;;18.40;85.20;;;;;;5043126;28;19929;-84
2022/07/04 08:48:02;;;;;;;;;;;18.70;85.20;;;;;;5029206;28;19934;-85
2022/07/04 08:50:33;;;;;;;;;;;18.60;84.30;;;;;;5026186;28;19929;-83
2022/07/04 08:53:03;;;;;;;;;;;18.70;84.70;;;;;;5046994;28;20402;-84
2022/07/04 08:58:29;;;;;;;;;;;20.30;86.20;;;;;;5013705;28;20488;-85
2022/07/04 09:01:05;;;;;;;;;;;18.80;84.20;;;;;;5046789;28;19936;-85
2022/07/04 09:03:37;;;;;;;;;;;18.90;84.00;;;;;;5044082;28;19940;-85
2022/07/04 09:06:12;;;;;;;;;;;19.00;82.00;;;;;;4994260;28;19932;-85
2022/07/04 09:08:41;;;;;;;;;;;18.00;81.80;;;;;;5017825;28;19929;-84
2022/07/04 09:11:09;;;;;;;;;;;17.70;80.80;;;;;;5013098;28;19926;-85
2022/07/04 09:13:37;;;;;;;;;;;19.50;84.40;;;;;;5010757;28;19932;-86
2022/07/04 09:16:05;;;;;;;;;;;19.30;82.60;;;;;;5022664;28;20354;-86
2022/07/04 09:18:35;;;;;;;;;;;19.40;80.50;;;;;;5029690;28;19921;-84
2022/07/04 09:21:04;;;;;;;;;;;19.30;81.00;;;;;;5030149;28;19933;-86
2022/07/04 09:23:34;;;;;;;;;;;19.50;80.70;;;;;;5037702;28;20845;-84
2022/07/04 09:26:13;;;;;;;;;;;19.70;80.40;;;;;;5044135;28;19929;-85
2022/07/04 09:28:43;;;;;;;;;;;19.70;79.90;;;;;;5027033;28;19929;-85
2022/07/04 09:31:18;;;;;;;;;;;19.70;80.80;;;;;;5016196;28;19948;-85
2022/07/04 09:33:49;;;;;;;;;;;20.80;79.70;;;;;;5042474;28;19920;-84
2022/07/04 09:36:19;;;;;;;;;;;20.00;78.30;;;;;;5034809;28;19940;-85
2022/07/04 09:39:05;;;;;;;;;;;20.00;79.10;;;;;;5019237;28;19935;-85
2022/07/04 09:41:49;;;;;;;;;;;20.00;78.20;;;;;;5041562;28;19926;-84
2022/07/04 09:44:20;;;;;;;;;;;20.00;78.40;;;;;;5012907;28;19925;-85
2022/07/04 09:46:49;;;;;;;;;;;20.00;77.90;;;;;;5041994;28;19921;-85
2022/07/04 09:49:39;;;;;;;;;;;19.90;78.20;;;;;;5031088;28;19927;-87
2022/07/04 09:52:17;;;;;;;;;;;20.10;78.20;;;;;;5025376;28;19936;-85
2022/07/04 09:54:47;;;;;;;;;;;20.10;78.80;;;;;;5029294;28;19959;-84
2022/07/04 09:57:21;;;;;;;;;;;20.10;78.70;;;;;;5027661;28;19925;-84
2022/07/04 09:59:49;;;;;;;;;;;19.20;78.10;;;;;;5024585;28;19937;-84
2022/07/04 10:02:29;;;;;;;;;;;20.30;78.80;;;;;;5026814;28;19939;-85
2022/07/04 10:05:09;;;;;;;;;;;20.10;78.50;;;;;;5042377;28;19925;-85
2022/07/04 10:07:47;;;;;;;;;;;20.20;78.60;;;;;;5026697;28;19929;-87
2022/07/04 10:10:46;;;;;;;;;;;20.30;78.60;;;;;;5041822;28;19932;-85
2022/07/04 10:13:19;;;;;;;;;;;20.40;78.40;;;;;;5042285;28;19933;-85
2022/07/04 10:15:51;;;;;;;;;;;20.60;78.40;;;;;;5030870;28;19932;-86
2022/07/04 10:18:21;;;;;;;;;;;20.70;78.70;;;;;;5049413;28;20492;-85
2022/07/04 10:20:55;;;;;;;;;;;20.90;77.70;;;;;;5022930;28;19929;-85
2022/07/04 10:23:31;;;;;;;;;;;21.00;77.10;;;;;;5030936;28;19925;-85
2022/07/04 10:26:02;;;;;;;;;;;21.00;76.30;;;;;;5019659;28;19940;-84
2022/07/04 10:28:33;;;;;;;;;;;21.00;76.20;;;;;;5019932;28;20012;-85
2022/07/04 10:31:02;;;;;;;;;;;21.00;75.80;;;;;;5020971;28;19926;-85
2022/07/04 10:33:36;;;;;;;;;;;21.00;76.10;;;;;;5029938;28;19933;-85
2022/07/04 10:36:13;;;;;;;;;;;20.40;76.50;;;;;;5046421;28;19920;-83
2022/07/04 10:38:47;;;;;;;;;;;21.10;76.40;;;;;;5018284;28;19921;-85
2022/07/04 10:41:21;;;;;;;;;;;20.70;75.50;;;;;;5031646;28;19933;-85
2022/07/04 10:44:17;;;;;;;;;;;21.20;75.70;;;;;;5026748;28;19932;-86
2022/07/04 10:47:06;;;;;;;;;;;21.30;76.00;;;;;;5051826;28;19925;-83
2022/07/04 10:49:34;;;;;;;;;;;21.30;76.40;;;;;;5037173;28;19929;-85
2022/07/04 10:52:12;;;;;;;;;;;21.50;76.80;;;;;;5019608;28;19925;-85
2022/07/04 10:54:42;;;;;;;;;;;21.50;76.20;;;;;;5021651;28;20244;-83
2022/07/04 10:57:15;;;;;;;;;;;21.50;76.10;;;;;;5047998;28;19929;-85
2022/07/04 11:00:00;;;;;;;;;;;22.40;76.20;;;;;;5037033;28;19933;-87
2022/07/04 11:02:34;;;;;;;;;;;20.20;74.70;;;;;;5032931;28;21530;-86
2022/07/04 11:05:10;;;;;;;;;;;21.60;76.00;;;;;;5046904;28;19931;-84
2022/07/04 11:07:46;;;;;;;;;;;21.70;75.60;;;;;;5037008;28;19925;-85
2022/07/04 11:10:23;;;;;;;;;;;22.30;76.70;;;;;;5034770;28;19925;-83
2022/07/04 11:12:57;;;;;;;;;;;22.40;75.80;;;;;;5018823;28;19930;-84
2022/07/04 11:15:26;;;;;;;;;;;22.20;75.00;;;;;;5019584;28;19913;-84
2022/07/04 11:17:54;;;;;;;;;;;22.40;76.30;;;;;;5032203;28;19952;-85
2022/07/04 11:20:23;;;;;;;;;;;21.80;74.70;;;;;;5049600;28;19933;-86
2022/07/04 11:22:52;;;;;;;;;;;22.60;74.80;;;;;;5002145;28;20403;-86
2022/07/04 11:25:24;;;;;;;;;;;22.80;75.00;;;;;;5043781;28;19925;-84
2022/07/04 11:27:54;;;;;;;;;;;22.70;73.90;;;;;;5047309;28;19925;-83
2022/07/04 11:30:22;;;;;;;;;;;22.80;74.60;;;;;;5018248;28;19927;-85
2022/07/04 11:32:50;;;;;;;;;;;21.60;73.80;;;;;;5039998;28;19932;-86
2022/07/04 11:35:44;;;;;;;;;;;21.60;74.40;;;;;;5035007;28;19936;-84
2022/07/04 11:38:13;;;;;;;;;;;23.00;73.70;;;;;;5040565;28;19929;-84
2022/07/04 11:46:27;;;;;;;;;;;23.20;73.30;;;;;;5054683;28;19921;-86
2022/07/04 11:49:07;;;;;;;;;;;22.20;73.30;;;;;;5008713;28;19913;-85
2022/07/04 11:51:55;;;;;;;;;;;23.00;72.90;;;;;;5028791;28;19925;-84
2022/07/04 11:54:30;;;;;;;;;;;23.20;72.80;;;;;;5024207;28;19910;-84
2022/07/04 11:57:23;;;;;;;;;;;23.20;73.40;;;;;;5031138;28;20132;-85
2022/07/04 11:59:53;;;;;;;;;;;23.40;72.90;;;;;;5049268;28;19931;-86
2022/07/04 12:02:24;;;;;;;;;;;23.30;72.80;;;;;;5032588;28;19925;-83
2022/07/04 12:04:54;;;;;;;;;;;23.40;72.50;;;;;;5035577;28;19932;-84
2022/07/04 12:07:24;;;;;;;;;;;23.50;72.70;;;;;;5049738;28;19929;-84
2022/07/04 12:09:52;;;;;;;;;;;23.70;72.30;;;;;;5035676;28;19939;-84
2022/07/04 12:12:30;;;;;;;;;;;23.70;72.50;;;;;;5046216;28;19928;-84
2022/07/04 12:15:05;;;;;;;;;;;23.70;71.60;;;;;;5024850;28;19921;-83
2022/07/04 12:17:38;;;;;;;;;;;23.50;72.00;;;;;;5051816;28;19937;-84
2022/07/04 12:20:14;;;;;;;;;;;23.50;71.90;;;;;;5030743;28;19940;-83
2022/07/04 12:22:56;;;;;;;;;;;23.50;72.20;;;;;;5044128;28;19921;-85
2022/07/04 12:25:36;;;;;;;;;;;23.60;72.10;;;;;;5010498;28;19921;-84
2022/07/04 12:28:09;;;;;;;;;;;23.20;72.10;;;;;;5033374;28;19928;-84
2022/07/04 12:30:48;;;;;;;;;;;23.80;72.00;;;;;;5044631;28;19932;-84
2022/07/04 12:33:20;;;;;;;;;;;23.90;72.70;;;;;;5045507;28;19936;-84
2022/07/04 12:35:48;;;;;;;;;;;24.00;72.00;;;;;;5034474;28;19926;-83
2022/07/04 12:38:23;;;;;;;;;;;24.00;73.10;;;;;;5035794;28;19933;-85
2022/07/04 12:41:10;;;;;;;;;;;23.00;71.10;;;;;;5045285;28;19931;-84
2022/07/04 12:43:42;;;;;;;;;;;23.80;71.80;;;;;;5057710;28;19925;-85
2022/07/04 12:46:31;;;;;;;;;;;23.60;73.00;;;;;;5021794;28;19931;-85
2022/07/04 12:49:06;;;;;;;;;;;23.40;71.60;;;;;;5016144;28;19936;-84
2022/07/04 12:51:37;;;;;;;;;;;23.40;71.60;;;;;;5042393;28;19936;-82
2022/07/04 12:54:11;;;;;;;;;;;23.70;72.00;;;;;;5047644;28;19925;-85
2022/07/04 12:56:47;;;;;;;;;;;23.70;71.30;;;;;;5036597;28;19925;-85
2022/07/04 12:59:18;;;;;;;;;;;24.20;71.00;;;;;;5042195;28;19925;-84
2022/07/04 13:01:52;;;;;;;;;;;24.30;71.50;;;;;;5018592;28;19931;-84
2022/07/04 13:04:23;;;;;;;;;;;24.80;71.60;;;;;;5050423;28;19932;-82
2022/07/04 13:06:59;;;;;;;;;;;24.50;70.60;;;;;;5029621;28;19925;-85
2022/07/04 13:09:48;;;;;;;;;;;24.90;70.00;;;;;;5036142;28;19928;-82
2022/07/04 13:12:27;;;;;;;;;;;24.60;69.80;;;;;;5032694;28;19936;-80
2022/07/04 13:14:57;;;;;;;;;;;24.50;70.30;;;;;;5022957;28;19929;-83
2022/07/04 13:17:27;;;;;;;;;;;24.80;70.10;;;;;;5042592;28;19925;-81
2022/07/04 13:19:56;;;;;;;;;;;24.00;70.40;;;;;;5015111;28;19943;-80
2022/07/04 13:23:04;;;;;;;;;;;25.10;70.20;;;;;;5018232;28;19932;-83
2022/07/04 13:25:44;;;;;;;;;;;25.20;69.50;;;;;;5002116;28;19958;-83
2022/07/04 13:28:22;;;;;;;;;;;26.60;70.70;;;;;;4691639;28;10000735;-83
2022/07/04 13:30:52;;;;;;;;;;;25.30;68.70;;;;;;5019430;28;20428;-84
2022/07/04 13:41:55;;;;;;;;;;;26.90;68.80;;;;;;5205304;23;19925;-92
2022/07/04 13:44:47;;;;;;;;;;;26.20;68.30;;;;;;5006647;28;19924;-93
2022/07/04 13:47:34;;;;;;;;;;;25.60;67.70;;;;;;5014257;28;19940;-89
2022/07/04 13:50:19;;;;;;;;;;;25.60;68.20;;;;;;5014430;28;19931;-91
2022/07/04 13:53:06;;;;;;;;;;;25.80;68.00;;;;;;4998504;28;19916;-92
2022/07/04 13:56:22;;;;;;;;;;;26.00;68.10;;;;;;5008478;28;19932;-91
2022/07/04 13:59:28;;;;;;;;;;;25.50;67.90;;;;;;5010472;28;19929;-89
2022/07/04 14:02:05;;;;;;;;;;;24.20;67.60;;;;;;5005144;28;19926;-91
2022/07/04 14:04:42;;;;;;;;;;;25.40;67.90;;;;;;4984330;28;19926;-90
2022/07/04 14:07:41;;;;;;;;;;;25.50;67.50;;;;;;4998543;28;19925;-90
2022/07/04 14:10:28;;;;;;;;;;;25.70;67.50;;;;;;5012678;28;19925;-88
2022/07/04 14:13:11;;;;;;;;;;;25.40;67.30;;;;;;4970257;28;19933;-88
2022/07/04 14:15:41;;;;;;;;;;;25.50;67.60;;;;;;5002954;28;19948;-90
2022/07/04 14:18:14;;;;;;;;;;;25.80;67.40;;;;;;4980145;28;19940;-91
2022/07/04 14:20:51;;;;;;;;;;;25.80;67.20;;;;;;5009522;28;20399;-88
2022/07/04 14:26:12;;;;;;;;;;;25.90;67.60;;;;;;5004599;28;19930;-88
2022/07/04 14:28:42;;;;;;;;;;;25.80;67.40;;;;;;5007004;28;19937;-88
2022/07/04 14:34:43;;;;;;;;;;;25.30;67.80;;;;;;5009101;28;19933;-92
2022/07/04 14:38:09;;;;;;;;;;;25.40;69.20;;;;;;5008758;28;19926;-89
2022/07/04 14:40:43;;;;;;;;;;;25.70;68.20;;;;;;4990644;28;19936;-88
2022/07/04 14:43:13;;;;;;;;;;;25.70;68.40;;;;;;5005880;28;19933;-89
2022/07/04 14:45:43;;;;;;;;;;;25.50;68.80;;;;;;5030067;28;19930;-86
2022/07/04 14:48:13;;;;;;;;;;;25.40;68.60;;;;;;5031293;28;19933;-88
2022/07/04 14:50:44;;;;;;;;;;;25.40;68.60;;;;;;5024756;28;19929;-86
2022/07/04 14:53:19;;;;;;;;;;;25.20;69.00;;;;;;5006560;28;19955;-86
2022/07/04 14:55:47;;;;;;;;;;;25.60;68.50;;;;;;5023959;28;19929;-88
2022/07/04 14:58:20;;;;;;;;;;;26.00;68.10;;;;;;5027879;28;19930;-87
2022/07/04 15:00:51;;;;;;;;;;;27.20;67.40;;;;;;5021702;28;19932;-88
2022/07/04 15:03:19;;;;;;;;;;;27.00;66.90;;;;;;4997827;28;20514;-87
2022/07/04 15:05:48;;;;;;;;;;;27.10;66.20;;;;;;5009058;28;19933;-88
2022/07/04 15:08:24;;;;;;;;;;;27.00;66.00;;;;;;4987939;28;19993;-87
2022/07/04 15:10:57;;;;;;;;;;;26.80;66.60;;;;;;5003806;28;19925;-86
2022/07/04 15:13:28;;;;;;;;;;;26.10;66.20;;;;;;5003251;28;19932;-88
2022/07/04 15:15:56;;;;;;;;;;;27.30;66.80;;;;;;4976482;28;19930;-90
2022/07/04 15:18:47;;;;;;;;;;;26.10;67.00;;;;;;5016100;28;19925;-88
2022/07/04 15:24:11;;;;;;;;;;;23.70;66.20;;;;;;5036345;28;19925;-89
2022/07/04 15:26:46;;;;;;;;;;;25.40;67.80;;;;;;5014697;28;19936;-84
2022/07/04 15:29:22;;;;;;;;;;;24.90;68.00;;;;;;5008941;28;19932;-85
2022/07/04 15:31:53;;;;;;;;;;;24.90;68.20;;;;;;5017640;28;19925;-86
2022/07/04 15:34:22;;;;;;;;;;;24.70;68.50;;;;;;4987580;28;19937;-86
2022/07/04 15:36:51;;;;;;;;;;;24.70;69.20;;;;;;4990495;28;20293;-87
2022/07/04 15:39:21;;;;;;;;;;;24.70;68.90;;;;;;5008941;28;19926;-90
2022/07/04 15:41:52;;;;;;;;;;;24.90;69.00;;;;;;4993835;28;19929;-87
2022/07/04 15:44:26;;;;;;;;;;;25.00;69.00;;;;;;5008743;28;19933;-87
2022/07/04 15:47:11;;;;;;;;;;;25.10;68.90;;;;;;5004416;28;19929;-85
2022/07/04 15:49:41;;;;;;;;;;;25.00;69.10;;;;;;5005102;28;19930;-87
2022/07/04 15:52:11;;;;;;;;;;;24.90;69.00;;;;;;5005398;28;19921;-85
2022/07/04 15:54:40;;;;;;;;;;;24.70;69.00;;;;;;5020669;28;19925;-86
2022/07/04 15:57:37;;;;;;;;;;;24.50;69.80;;;;;;5013605;28;19928;-88
2022/07/04 16:00:12;;;;;;;;;;;24.80;70.10;;;;;;5025495;28;19940;-86
2022/07/04 16:02:47;;;;;;;;;;;24.40;70.20;;;;;;5021709;28;19926;-86
2022/07/04 16:05:16;;;;;;;;;;;24.40;71.00;;;;;;4999884;28;19925;-88
2022/07/04 16:07:54;;;;;;;;;;;24.50;70.40;;;;;;4997179;28;20396;-89
2022/07/04 16:10:29;;;;;;;;;;;24.30;70.40;;;;;;4998754;28;20372;-89